TAF KRDD
KRDD 090530Z 0906/1006 15005KT 6SM BR VCSH OVC017 TEMPO 0906/0908 2SM -SHRA BR OVC007 FM090800 34003KT 5SM -RA BR OVC007 FM091300 35004KT P6SM BKN015 FM091700 34009KT P6SM BKN015 FM091900 35006KT P6SM SKC=
METAR KRDD
WC KRDD
WS KRDD
WV KRDD